Time;durP1;ratioP1;P1;durP2;ratioP2;P2;SDS_P1;SDS_P2;PMS_P1;PMS_P2;Temp;Humidity;BMP_temperature;BMP_pressure;BME280_temperature;BME280_humidity;BME280_pressure;Samples;Min_cycle;Max_cycle;Signal;HPM_P1;HPM_P2
2021/08/05 00:00:01;;;;;;;25.10;6.53;;;;;;;;;;5036907;28;20017;-40
2021/08/05 00:02:28;;;;;;;23.88;6.40;;;;;;;;;;5038790;28;20076;-40
2021/08/05 00:04:55;;;;;;;15.50;6.15;;;;;;;;;;5038860;28;20109;-43
2021/08/05 00:07:22;;;;;;;23.45;7.38;;;;;;;;;;5033053;28;20037;-40
2021/08/05 00:09:49;;;;;;;31.27;7.25;;;;;;;;;;5031945;28;20484;-42
2021/08/05 00:12:16;;;;;;;20.02;7.18;;;;;;;;;;5039443;28;20013;-45
2021/08/05 00:14:44;;;;;;;30.02;6.70;;;;;;;;;;5035194;28;20018;-43
2021/08/05 00:17:11;;;;;;;17.45;6.20;;;;;;;;;;5038567;28;20381;-42
2021/08/05 00:19:38;;;;;;;18.58;6.25;;;;;;;;;;5034076;28;20021;-39
2021/08/05 00:22:05;;;;;;;20.02;6.95;;;;;;;;;;5038947;28;20024;-40
2021/08/05 00:24:32;;;;;;;19.05;6.40;;;;;;;;;;5031864;28;20488;-41
2021/08/05 00:26:59;;;;;;;17.00;6.65;;;;;;;;;;5023821;28;20032;-41
2021/08/05 00:29:26;;;;;;;23.98;7.25;;;;;;;;;;5023122;28;20498;-40
2021/08/05 00:31:53;;;;;;;23.77;7.15;;;;;;;;;;5024169;28;20048;-41
2021/08/05 00:34:20;;;;;;;27.60;7.55;;;;;;;;;;5030912;28;20098;-42
2021/08/05 00:36:47;;;;;;;25.98;6.70;;;;;;;;;;5025245;28;20037;-44
2021/08/05 00:39:16;;;;;;;29.60;7.65;;;;;;;;;;5037744;28;20021;-42
2021/08/05 00:41:43;;;;;;;23.92;7.57;;;;;;;;;;5022361;28;20397;-42
2021/08/05 00:44:10;;;;;;;26.08;7.20;;;;;;;;;;5034087;28;20021;-39
2021/08/05 00:46:37;;;;;;;30.13;7.28;;;;;;;;;;5039713;28;20152;-39
2021/08/05 00:49:04;;;;;;;20.10;8.02;;;;;;;;;;5042812;28;20021;-49
2021/08/05 00:51:31;;;;;;;23.88;9.00;;;;;;;;;;5027075;28;20052;-40
2021/08/05 00:53:58;;;;;;;29.92;10.68;;;;;;;;;;5038437;28;20052;-51
2021/08/05 00:56:25;;;;;;;36.80;10.27;;;;;;;;;;5041552;28;20036;-41
2021/08/05 00:58:52;;;;;;;27.65;10.68;;;;;;;;;;5037204;28;20017;-43
2021/08/05 01:01:21;;;;;;;33.90;11.13;;;;;;;;;;5042218;28;20045;-41
2021/08/05 01:03:51;;;;;;;29.25;10.52;;;;;;;;;;5037874;28;20045;-40
2021/08/05 01:06:27;;;;;;;29.13;11.48;;;;;;;;;;5037462;28;20049;-40
2021/08/05 01:08:59;;;;;;;33.30;11.18;;;;;;;;;;5041015;28;20018;-44
2021/08/05 01:11:26;;;;;;;;;;;;;;;;;;5041832;28;20021;-42
2021/08/05 01:14:04;;;;;;;24.40;11.40;;;;;;;;;;5039160;28;20400;-40
2021/08/05 01:16:32;;;;;;;23.80;9.23;;;;;;;;;;5043034;28;20480;-40
2021/08/05 01:19:02;;;;;;;28.75;9.65;;;;;;;;;;5034937;28;20106;-39
2021/08/05 01:21:29;;;;;;;30.65;9.65;;;;;;;;;;5040630;28;20018;-45
2021/08/05 01:24:05;;;;;;;26.63;9.50;;;;;;;;;;5042306;28;20047;-41
2021/08/05 01:26:49;;;;;;;26.05;9.85;;;;;;;;;;5039174;28;20049;-44
2021/08/05 01:29:19;;;;;;;25.75;9.30;;;;;;;;;;5036154;28;20025;-43
2021/08/05 01:31:47;;;;;;;19.67;9.07;;;;;;;;;;5031278;28;20070;-44
2021/08/05 01:34:16;;;;;;;26.98;9.27;;;;;;;;;;5031630;28;20113;-39
2021/08/05 01:36:45;;;;;;;23.33;9.27;;;;;;;;;;5031652;28;20147;-50
2021/08/05 01:39:12;;;;;;;22.13;8.07;;;;;;;;;;5034200;28;20026;-47
2021/08/05 01:41:39;;;;;;;24.58;8.30;;;;;;;;;;5030351;28;20105;-37
2021/08/05 01:44:07;;;;;;;30.40;8.52;;;;;;;;;;5030010;28;20461;-40
2021/08/05 01:46:35;;;;;;;21.77;8.40;;;;;;;;;;5029652;28;20061;-51
2021/08/05 01:49:02;;;;;;;23.95;7.30;;;;;;;;;;5030704;28;20440;-44
2021/08/05 01:51:30;;;;;;;22.90;7.82;;;;;;;;;;5030859;28;20453;-58
2021/08/05 01:53:57;;;;;;;19.58;7.43;;;;;;;;;;5029880;28;20021;-37
2021/08/05 01:56:25;;;;;;;16.98;7.20;;;;;;;;;;5031283;28;20100;-46
2021/08/05 01:58:55;;;;;;;23.23;7.75;;;;;;;;;;5027969;28;20060;-38
2021/08/05 02:01:22;;;;;;;27.20;7.75;;;;;;;;;;5030168;28;20013;-50
2021/08/05 02:04:01;;;;;;;27.25;7.30;;;;;;;;;;5029751;28;20072;-36
2021/08/05 02:06:29;;;;;;;18.05;6.80;;;;;;;;;;5031088;28;20034;-51
2021/08/05 02:09:03;;;;;;;21.33;6.97;;;;;;;;;;5029033;28;20044;-65
2021/08/05 02:11:34;;;;;;;20.08;6.60;;;;;;;;;;5030899;28;20469;-37
2021/08/05 02:14:02;;;;;;;18.42;6.30;;;;;;;;;;5029623;28;20021;-50
2021/08/05 02:16:30;;;;;;;18.05;6.57;;;;;;;;;;5030463;28;20117;-39
2021/08/05 02:18:58;;;;;;;18.33;7.32;;;;;;;;;;5030690;28;20032;-67
2021/08/05 02:21:27;;;;;;;15.15;6.38;;;;;;;;;;5028553;28;20071;-36
2021/08/05 02:23:57;;;;;;;15.70;6.43;;;;;;;;;;5024105;28;20354;-37
2021/08/05 02:26:24;;;;;;;14.32;6.15;;;;;;;;;;5031252;28;20107;-40
2021/08/05 02:28:51;;;;;;;14.07;5.80;;;;;;;;;;5031414;28;20052;-39
2021/08/05 02:31:19;;;;;;;15.48;6.13;;;;;;;;;;5030646;28;20018;-51
2021/08/05 02:33:46;;;;;;;13.75;5.25;;;;;;;;;;5031851;28;20018;-38
2021/08/05 02:36:14;;;;;;;13.05;5.72;;;;;;;;;;5031072;28;20025;-37
2021/08/05 02:38:41;;;;;;;11.88;5.75;;;;;;;;;;5031676;28;20018;-41
2021/08/05 02:41:08;;;;;;;13.20;5.80;;;;;;;;;;5013007;28;20034;-41
2021/08/05 02:43:36;;;;;;;15.43;5.93;;;;;;;;;;5031155;28;20024;-37
2021/08/05 02:46:04;;;;;;;18.58;6.50;;;;;;;;;;5030340;28;20025;-37
2021/08/05 02:48:33;;;;;;;20.70;5.47;;;;;;;;;;5031585;28;20032;-38
2021/08/05 02:51:00;;;;;;;15.43;6.07;;;;;;;;;;5031047;28;20061;-39
2021/08/05 02:53:28;;;;;;;18.38;6.57;;;;;;;;;;5031837;28;20017;-38
2021/08/05 02:55:55;;;;;;;15.60;6.13;;;;;;;;;;5031515;28;20021;-36
2021/08/05 02:58:22;;;;;;;19.15;6.00;;;;;;;;;;5031263;28;20492;-38
2021/08/05 03:00:50;;;;;;;14.32;5.35;;;;;;;;;;5031100;28;20036;-38
2021/08/05 03:03:22;;;;;;;13.88;5.35;;;;;;;;;;5030914;28;20124;-40
2021/08/05 03:05:50;;;;;;;13.45;5.18;;;;;;;;;;5025225;28;20021;-38
2021/08/05 03:08:17;;;;;;;12.48;5.50;;;;;;;;;;5030672;28;20040;-38
2021/08/05 03:10:44;;;;;;;10.73;5.25;;;;;;;;;;5031236;28;20055;-44
2021/08/05 03:13:11;;;;;;;12.60;4.68;;;;;;;;;;5030980;28;20089;-38
2021/08/05 03:15:38;;;;;;;11.85;5.25;;;;;;;;;;5031178;28;20481;-45
2021/08/05 03:18:05;;;;;;;12.95;5.55;;;;;;;;;;5030766;28;20033;-37
2021/08/05 03:20:32;;;;;;;14.88;5.38;;;;;;;;;;5030127;28;20124;-38
2021/08/05 03:22:59;;;;;;;11.07;4.82;;;;;;;;;;5030237;28;20030;-37
2021/08/05 03:25:27;;;;;;;10.70;5.00;;;;;;;;;;5031038;28;20025;-41
2021/08/05 03:27:55;;;;;;;13.27;4.78;;;;;;;;;;5030713;28;20100;-38
2021/08/05 03:30:22;;;;;;;12.63;5.13;;;;;;;;;;5031277;28;20021;-38
2021/08/05 03:32:49;;;;;;;15.73;5.05;;;;;;;;;;5030323;28;20033;-39
2021/08/05 03:35:16;;;;;;;14.43;5.20;;;;;;;;;;5031435;28;20029;-39
2021/08/05 03:37:43;;;;;;;9.82;4.63;;;;;;;;;;5030424;28;20088;-37
2021/08/05 03:40:10;;;;;;;15.00;5.00;;;;;;;;;;5030650;28;20017;-57
2021/08/05 03:42:37;;;;;;;11.88;5.55;;;;;;;;;;5030940;28;20056;-43
2021/08/05 03:45:04;;;;;;;9.48;4.72;;;;;;;;;;5030256;28;20017;-38
2021/08/05 03:47:31;;;;;;;11.35;4.90;;;;;;;;;;5031143;28;20025;-39
2021/08/05 03:49:58;;;;;;;10.77;4.40;;;;;;;;;;5030610;28;20470;-39
2021/08/05 03:52:25;;;;;;;10.35;4.90;;;;;;;;;;5030875;28;20092;-37
2021/08/05 03:54:52;;;;;;;9.10;4.35;;;;;;;;;;5030356;28;20030;-38
2021/08/05 03:57:19;;;;;;;11.25;4.47;;;;;;;;;;5017437;28;20034;-40
2021/08/05 03:59:46;;;;;;;9.38;4.57;;;;;;;;;;5030155;28;20026;-39
2021/08/05 04:02:13;;;;;;;10.32;4.85;;;;;;;;;;5030349;28;20495;-38
2021/08/05 04:04:41;;;;;;;12.57;5.03;;;;;;;;;;5030375;28;20060;-37
2021/08/05 04:07:09;;;;;;;8.32;4.15;;;;;;;;;;5030412;28;20029;-38
2021/08/05 04:09:36;;;;;;;11.35;4.57;;;;;;;;;;5033675;28;20021;-46
2021/08/05 04:12:03;;;;;;;13.35;4.25;;;;;;;;;;5034278;28;20109;-37
2021/08/05 04:14:30;;;;;;;10.00;4.40;;;;;;;;;;5034487;28;20030;-38
2021/08/05 04:16:57;;;;;;;9.48;4.20;;;;;;;;;;5034730;28;20033;-39
2021/08/05 04:19:26;;;;;;;11.02;4.55;;;;;;;;;;5034768;28;20104;-36
2021/08/05 04:21:53;;;;;;;9.63;4.35;;;;;;;;;;5034386;28;20029;-46
2021/08/05 04:24:21;;;;;;;10.32;4.68;;;;;;;;;;5034455;28;20017;-37
2021/08/05 04:26:48;;;;;;;10.30;4.13;;;;;;;;;;5034281;28;20052;-36
2021/08/05 04:29:15;;;;;;;8.00;3.88;;;;;;;;;;5017075;28;20029;-38
2021/08/05 04:31:42;;;;;;;8.63;4.18;;;;;;;;;;5016170;28;20499;-37
2021/08/05 04:34:09;;;;;;;11.10;4.10;;;;;;;;;;5016693;28;20500;-38
2021/08/05 04:36:36;;;;;;;17.30;4.22;;;;;;;;;;5034088;28;20083;-38
2021/08/05 04:39:03;;;;;;;10.55;3.92;;;;;;;;;;5034686;28;20440;-37
2021/08/05 04:41:30;;;;;;;7.60;3.95;;;;;;;;;;5033676;28;20018;-38
2021/08/05 04:43:58;;;;;;;9.77;4.03;;;;;;;;;;5034026;28;20064;-38
2021/08/05 04:46:25;;;;;;;6.72;3.78;;;;;;;;;;5033625;28;20053;-37
2021/08/05 04:48:52;;;;;;;6.60;3.92;;;;;;;;;;5034272;28;20028;-37
2021/08/05 04:51:19;;;;;;;6.47;3.45;;;;;;;;;;5033977;28;20025;-41
2021/08/05 04:53:46;;;;;;;6.00;3.35;;;;;;;;;;5033717;28;20022;-38
2021/08/05 04:56:13;;;;;;;6.97;3.53;;;;;;;;;;5033300;28;20111;-36
2021/08/05 04:58:40;;;;;;;11.50;4.40;;;;;;;;;;5034229;28;20025;-38
2021/08/05 05:01:07;;;;;;;10.80;3.53;;;;;;;;;;5033231;28;20369;-36
2021/08/05 05:03:36;;;;;;;7.88;3.38;;;;;;;;;;5033233;28;20041;-39
2021/08/05 05:06:03;;;;;;;6.47;4.00;;;;;;;;;;5033551;28;20036;-38
2021/08/05 05:08:30;;;;;;;7.97;3.92;;;;;;;;;;5033393;28;20021;-38
2021/08/05 05:10:57;;;;;;;9.30;3.70;;;;;;;;;;5033701;28;20014;-37
2021/08/05 05:13:24;;;;;;;5.00;2.92;;;;;;;;;;5033241;28;20021;-37
2021/08/05 05:15:51;;;;;;;11.25;4.00;;;;;;;;;;5033603;28;20025;-37
2021/08/05 05:18:20;;;;;;;5.70;3.05;;;;;;;;;;5033207;28;20444;-39
2021/08/05 05:20:47;;;;;;;6.15;3.38;;;;;;;;;;5033778;28;20465;-38
2021/08/05 05:23:14;;;;;;;7.55;3.72;;;;;;;;;;5032575;28;20029;-38
2021/08/05 05:25:41;;;;;;;4.53;3.17;;;;;;;;;;5033510;28;20029;-37
2021/08/05 05:28:09;;;;;;;7.82;3.63;;;;;;;;;;5015119;28;20412;-39
2021/08/05 05:30:36;;;;;;;6.50;2.88;;;;;;;;;;5033403;28;20026;-38
2021/08/05 05:33:04;;;;;;;7.55;3.50;;;;;;;;;;5032703;28;20022;-37
2021/08/05 05:35:31;;;;;;;4.53;3.20;;;;;;;;;;5033765;28;20532;-37
2021/08/05 05:37:59;;;;;;;8.63;3.45;;;;;;;;;;5032601;28;20045;-37
2021/08/05 05:40:26;;;;;;;6.60;3.10;;;;;;;;;;5033194;28;20099;-42
2021/08/05 05:42:53;;;;;;;7.75;3.40;;;;;;;;;;5033173;28;20075;-38
2021/08/05 05:45:21;;;;;;;3.60;2.88;;;;;;;;;;5032659;28;20025;-37
2021/08/05 05:47:48;;;;;;;8.77;3.30;;;;;;;;;;5030733;28;20049;-44
2021/08/05 05:50:16;;;;;;;7.28;3.20;;;;;;;;;;5032431;28;20079;-38
2021/08/05 05:52:44;;;;;;;6.97;3.28;;;;;;;;;;5032884;28;20381;-37
2021/08/05 05:55:11;;;;;;;5.55;2.92;;;;;;;;;;5031854;28;20032;-36
2021/08/05 05:57:38;;;;;;;10.90;3.17;;;;;;;;;;5032939;28;20034;-38
2021/08/05 06:00:05;;;;;;;4.90;2.90;;;;;;;;;;5032494;28;20413;-41
2021/08/05 06:02:32;;;;;;;5.47;3.10;;;;;;;;;;5032593;28;20517;-38
2021/08/05 06:04:59;;;;;;;4.85;2.90;;;;;;;;;;5032235;28;20025;-38
2021/08/05 06:07:26;;;;;;;5.03;2.65;;;;;;;;;;5032977;28;20100;-38
2021/08/05 06:09:54;;;;;;;5.90;3.00;;;;;;;;;;5031465;28;20013;-37
2021/08/05 06:12:21;;;;;;;5.18;2.95;;;;;;;;;;5032393;28;20175;-40
2021/08/05 06:14:48;;;;;;;7.82;3.47;;;;;;;;;;5032265;28;20013;-38
2021/08/05 06:17:15;;;;;;;5.55;2.90;;;;;;;;;;5032781;28;20124;-37
2021/08/05 06:19:42;;;;;;;6.45;3.25;;;;;;;;;;5032096;28;20396;-40
2021/08/05 06:22:10;;;;;;;4.72;2.75;;;;;;;;;;5032694;28;20132;-37
2021/08/05 06:24:38;;;;;;;6.63;2.72;;;;;;;;;;5031659;28;20037;-56
2021/08/05 06:27:05;;;;;;;6.63;2.60;;;;;;;;;;5032109;28;20409;-37
2021/08/05 06:29:33;;;;;;;7.25;2.83;;;;;;;;;;5014709;28;20029;-38
2021/08/05 06:32:00;;;;;;;4.32;2.70;;;;;;;;;;5031294;28;20021;-38
2021/08/05 06:34:27;;;;;;;4.97;2.70;;;;;;;;;;5031814;28;20420;-37
2021/08/05 06:36:54;;;;;;;5.15;3.13;;;;;;;;;;5032025;28;20465;-39
2021/08/05 06:39:21;;;;;;;6.28;2.83;;;;;;;;;;5014575;28;20032;-39
2021/08/05 06:41:48;;;;;;;6.75;2.75;;;;;;;;;;5030356;28;20520;-36
2021/08/05 06:44:15;;;;;;;4.05;2.58;;;;;;;;;;5032213;28;20473;-38
2021/08/05 06:46:42;;;;;;;6.13;2.40;;;;;;;;;;5031512;28;20013;-38
2021/08/05 06:49:09;;;;;;;8.50;3.20;;;;;;;;;;5032135;28;20028;-39
2021/08/05 06:51:36;;;;;;;5.47;2.60;;;;;;;;;;5031674;28;20025;-46
2021/08/05 06:54:03;;;;;;;5.90;2.85;;;;;;;;;;5031916;28;20096;-38
2021/08/05 06:56:30;;;;;;;3.70;2.25;;;;;;;;;;5031095;28;20030;-37
2021/08/05 06:58:57;;;;;;;4.65;2.60;;;;;;;;;;5031895;28;20025;-47
2021/08/05 07:01:24;;;;;;;6.80;3.10;;;;;;;;;;5031377;28;20022;-39
2021/08/05 07:03:51;;;;;;;5.78;2.53;;;;;;;;;;5031564;28;20038;-37
2021/08/05 07:06:18;;;;;;;6.30;2.70;;;;;;;;;;5031628;28;20068;-37
2021/08/05 07:08:45;;;;;;;4.22;2.70;;;;;;;;;;5031193;28;20560;-38
2021/08/05 07:11:12;;;;;;;4.43;2.10;;;;;;;;;;5031923;28;20025;-36
2021/08/05 07:13:39;;;;;;;5.57;2.60;;;;;;;;;;5031127;28;20071;-50
2021/08/05 07:16:07;;;;;;;5.22;2.50;;;;;;;;;;5031082;28;20383;-36
2021/08/05 07:18:34;;;;;;;8.50;2.97;;;;;;;;;;5031094;28;20026;-36
2021/08/05 07:21:01;;;;;;;4.82;2.70;;;;;;;;;;5031475;28;20021;-37
2021/08/05 07:23:28;;;;;;;6.20;2.60;;;;;;;;;;5012906;28;20363;-37
2021/08/05 07:25:55;;;;;;;4.75;2.60;;;;;;;;;;5031043;28;20010;-39
2021/08/05 07:28:22;;;;;;;3.72;2.42;;;;;;;;;;5031021;28;20082;-39
2021/08/05 07:30:51;;;;;;;6.90;2.53;;;;;;;;;;5031348;28;20446;-40
2021/08/05 07:33:19;;;;;;;4.05;2.30;;;;;;;;;;5030581;28;20029;-37
2021/08/05 07:35:46;;;;;;;4.57;2.50;;;;;;;;;;5030758;28;20025;-38
2021/08/05 07:38:13;;;;;;;4.70;2.30;;;;;;;;;;5030958;28;20576;-56
2021/08/05 07:40:40;;;;;;;6.22;2.38;;;;;;;;;;5031164;28;20045;-37
2021/08/05 07:43:07;;;;;;;5.45;2.45;;;;;;;;;;5012118;28;20033;-43
2021/08/05 07:45:34;;;;;;;5.35;2.17;;;;;;;;;;5030907;28;20026;-37
2021/08/05 07:48:01;;;;;;;4.38;2.30;;;;;;;;;;5031081;28;20023;-38
2021/08/05 07:50:29;;;;;;;4.15;2.20;;;;;;;;;;5030698;28;20017;-36
2021/08/05 07:52:56;;;;;;;10.20;2.22;;;;;;;;;;5031143;28;20053;-39
2021/08/05 07:55:25;;;;;;;3.92;1.92;;;;;;;;;;5013412;28;20542;-39
2021/08/05 07:57:52;;;;;;;7.05;2.65;;;;;;;;;;5030857;28;20093;-37
2021/08/05 08:00:19;;;;;;;6.47;2.58;;;;;;;;;;5012345;28;20049;-38
2021/08/05 08:02:46;;;;;;;4.50;2.22;;;;;;;;;;5030648;28;20056;-37
2021/08/05 08:05:14;;;;;;;5.45;2.22;;;;;;;;;;5029854;28;20428;-37
2021/08/05 08:07:42;;;;;;;4.50;2.28;;;;;;;;;;5030501;28;20473;-36
2021/08/05 08:10:09;;;;;;;3.42;2.20;;;;;;;;;;5030471;28;20377;-38
2021/08/05 08:12:37;;;;;;;4.57;2.30;;;;;;;;;;5030495;28;20025;-38
2021/08/05 08:15:04;;;;;;;5.95;2.10;;;;;;;;;;5030380;28;20649;-37
2021/08/05 08:17:31;;;;;;;5.70;2.35;;;;;;;;;;5012510;28;20054;-37
2021/08/05 08:19:58;;;;;;;6.97;2.67;;;;;;;;;;5030176;28;20488;-38
2021/08/05 08:22:25;;;;;;;6.68;1.92;;;;;;;;;;5030647;28;20105;-37
2021/08/05 08:24:52;;;;;;;4.18;2.15;;;;;;;;;;5030332;28;20060;-37
2021/08/05 08:27:20;;;;;;;5.60;2.25;;;;;;;;;;5030437;28;20070;-38
2021/08/05 08:29:47;;;;;;;8.00;2.60;;;;;;;;;;5030921;28;20014;-36
2021/08/05 08:32:14;;;;;;;4.22;2.20;;;;;;;;;;5030581;28;20029;-37
2021/08/05 08:34:41;;;;;;;4.35;2.05;;;;;;;;;;5030485;28;20022;-36
2021/08/05 08:37:08;;;;;;;5.15;2.08;;;;;;;;;;5029932;28;20033;-38
2021/08/05 08:39:35;;;;;;;4.47;2.55;;;;;;;;;;5030884;28;20021;-39
2021/08/05 08:42:02;;;;;;;5.75;2.22;;;;;;;;;;5030211;28;20032;-38
2021/08/05 08:44:29;;;;;;;3.70;2.20;;;;;;;;;;5030354;28;20048;-39
2021/08/05 08:46:57;;;;;;;5.15;2.08;;;;;;;;;;5030177;28;20022;-39
2021/08/05 08:49:24;;;;;;;6.05;2.13;;;;;;;;;;5030107;28;20393;-44
2021/08/05 08:51:53;;;;;;;6.68;2.08;;;;;;;;;;5029967;28;20421;-38
2021/08/05 08:54:20;;;;;;;8.10;2.53;;;;;;;;;;5031694;28;20025;-38
2021/08/05 08:56:48;;;;;;;5.85;2.20;;;;;;;;;;5033280;28;20038;-38
2021/08/05 08:59:15;;;;;;;5.47;2.08;;;;;;;;;;5034094;28;20490;-39
2021/08/05 09:01:42;;;;;;;6.43;2.28;;;;;;;;;;5033405;28;20470;-38
2021/08/05 09:04:09;;;;;;;5.13;2.33;;;;;;;;;;5016028;28;20532;-38
2021/08/05 09:06:36;;;;;;;6.30;2.38;;;;;;;;;;5033386;28;20032;-42
2021/08/05 09:09:06;;;;;;;5.80;2.33;;;;;;;;;;5033945;28;20517;-38
2021/08/05 09:11:33;;;;;;;4.50;1.90;;;;;;;;;;5034043;28;20037;-38
2021/08/05 09:14:00;;;;;;;6.50;2.05;;;;;;;;;;5033428;28;20018;-36
2021/08/05 09:16:29;;;;;;;5.22;2.10;;;;;;;;;;5033658;28;20051;-37
2021/08/05 09:19:07;;;;;;;4.68;2.30;;;;;;;;;;5032879;28;20021;-38
2021/08/05 09:21:34;;;;;;;5.35;2.17;;;;;;;;;;5033753;28;20025;-36
2021/08/05 09:24:07;;;;;;;4.28;2.20;;;;;;;;;;5032907;28;20385;-37
2021/08/05 09:26:41;;;;;;;4.18;2.20;;;;;;;;;;5033776;28;20160;-38
2021/08/05 09:29:08;;;;;;;4.18;2.30;;;;;;;;;;5032877;28;20029;-38
2021/08/05 09:31:36;;;;;;;3.90;2.30;;;;;;;;;;5033387;28;20021;-39
2021/08/05 09:34:05;;;;;;;5.35;2.00;;;;;;;;;;5032939;28;20025;-37
2021/08/05 09:36:32;;;;;;;3.33;1.80;;;;;;;;;;5033755;28;20855;-36
2021/08/05 09:38:59;;;;;;;4.97;1.90;;;;;;;;;;5032737;28;20057;-39
2021/08/05 09:41:26;;;;;;;3.92;2.03;;;;;;;;;;5033127;28;20043;-39
2021/08/05 09:44:03;;;;;;;3.15;1.80;;;;;;;;;;5032819;28;20017;-58
2021/08/05 09:46:31;;;;;;;4.53;1.92;;;;;;;;;;5032846;28;20022;-36
2021/08/05 09:48:58;;;;;;;6.53;2.20;;;;;;;;;;5032152;28;20056;-37
2021/08/05 09:51:25;;;;;;;4.18;1.90;;;;;;;;;;5014817;28;20013;-39
2021/08/05 09:53:53;;;;;;;3.25;2.13;;;;;;;;;;5027239;28;20525;-38
2021/08/05 09:56:20;;;;;;;4.07;2.13;;;;;;;;;;5031946;28;20049;-43
2021/08/05 09:58:48;;;;;;;5.03;2.00;;;;;;;;;;5031345;28;20040;-39
2021/08/05 10:01:15;;;;;;;4.78;1.95;;;;;;;;;;5032426;28;20064;-39
2021/08/05 10:03:42;;;;;;;6.45;2.20;;;;;;;;;;5031380;28;20444;-36
2021/08/05 10:06:09;;;;;;;6.75;2.20;;;;;;;;;;5031736;28;20112;-38
2021/08/05 10:08:41;;;;;;;6.78;2.20;;;;;;;;;;5032630;28;20013;-45
2021/08/05 10:11:09;;;;;;;3.95;2.15;;;;;;;;;;5032413;28;20018;-36
2021/08/05 10:13:40;;;;;;;6.60;1.83;;;;;;;;;;5031997;28;20022;-40
2021/08/05 10:16:08;;;;;;;4.23;1.97;;;;;;;;;;5032474;28;20168;-43
2021/08/05 10:18:36;;;;;;;4.70;2.10;;;;;;;;;;5032692;28;20330;-49
2021/08/05 10:21:05;;;;;;;4.93;2.10;;;;;;;;;;5031907;28;20018;-38
2021/08/05 10:23:34;;;;;;;4.43;2.00;;;;;;;;;;5032637;28;20385;-36
2021/08/05 10:26:02;;;;;;;7.20;2.28;;;;;;;;;;5031717;28;20020;-37
2021/08/05 10:28:29;;;;;;;6.47;2.00;;;;;;;;;;5032311;28;20477;-41
2021/08/05 10:30:57;;;;;;;9.02;2.22;;;;;;;;;;5031825;28;20027;-38
2021/08/05 10:33:25;;;;;;;4.47;2.00;;;;;;;;;;5032629;28;20024;-46
2021/08/05 10:35:52;;;;;;;7.45;2.40;;;;;;;;;;5031542;28;20028;-40
2021/08/05 10:38:21;;;;;;;5.43;1.88;;;;;;;;;;5032067;28;20041;-37
2021/08/05 10:40:49;;;;;;;4.70;1.80;;;;;;;;;;5031476;28;20032;-38
2021/08/05 10:43:18;;;;;;;7.63;1.95;;;;;;;;;;5031842;28;20022;-37
2021/08/05 10:45:46;;;;;;;6.50;1.98;;;;;;;;;;5030968;28;20144;-38
2021/08/05 10:48:13;;;;;;;11.13;2.22;;;;;;;;;;5031659;28;20017;-38
2021/08/05 10:50:41;;;;;;;5.35;2.00;;;;;;;;;;5031531;28;20068;-37
2021/08/05 10:53:31;;;;;;;14.82;2.70;;;;;;;;;;5010108;28;20018;-43
2021/08/05 10:56:24;;;;;;;4.80;2.20;;;;;;;;;;5029600;28;20049;-36
2021/08/05 10:59:10;;;;;;;7.13;2.10;;;;;;;;;;5031510;28;20072;-37
2021/08/05 11:01:50;;;;;;;6.95;2.13;;;;;;;;;;5030328;28;20017;-40
2021/08/05 11:04:47;;;;;;;6.65;2.00;;;;;;;;;;5034536;28;20636;-43
2021/08/05 11:07:44;;;;;;;5.38;1.95;;;;;;;;;;5012970;28;20037;-42
2021/08/05 11:10:17;;;;;;;6.82;2.70;;;;;;;;;;5010497;28;20109;-45
2021/08/05 11:12:53;;;;;;;8.32;2.00;;;;;;;;;;5008416;28;20026;-36
2021/08/05 11:15:29;;;;;;;4.47;2.40;;;;;;;;;;5036872;28;20025;-39
2021/08/05 11:18:08;;;;;;;6.70;2.35;;;;;;;;;;5038886;28;20041;-37
2021/08/05 11:20:35;;;;;;;7.05;2.00;;;;;;;;;;5032970;28;20514;-44
2021/08/05 11:23:03;;;;;;;5.28;2.03;;;;;;;;;;5038635;28;20033;-38
2021/08/05 11:25:48;;;;;;;8.02;2.10;;;;;;;;;;5042176;28;20018;-43
2021/08/05 11:28:31;;;;;;;7.50;2.42;;;;;;;;;;5036488;28;20083;-38
2021/08/05 11:31:02;;;;;;;6.05;2.00;;;;;;;;;;5036336;28;20013;-37
2021/08/05 11:39:02;;;;;;;8.57;2.47;;;;;;;;;;5035787;28;20047;-38
2021/08/05 11:41:46;;;;;;;7.88;2.22;;;;;;;;;;5030896;28;20061;-39
2021/08/05 11:44:23;;;;;;;5.43;2.03;;;;;;;;;;5037314;28;20179;-39
2021/08/05 11:47:02;;;;;;;2.92;1.90;;;;;;;;;;5036949;28;20059;-37
2021/08/05 11:49:44;;;;;;;7.15;2.20;;;;;;;;;;5030887;28;20024;-38
2021/08/05 11:52:19;;;;;;;9.98;1.92;;;;;;;;;;5031457;28;20493;-39
2021/08/05 11:54:49;;;;;;;7.07;2.00;;;;;;;;;;5036105;28;20053;-34
2021/08/05 11:57:18;;;;;;;8.10;2.33;;;;;;;;;;5032676;28;20389;-33
2021/08/05 11:59:46;;;;;;;7.20;2.00;;;;;;;;;;5031033;28;20044;-34
2021/08/05 12:02:14;;;;;;;6.88;2.15;;;;;;;;;;5040252;28;20125;-33
2021/08/05 12:04:42;;;;;;;13.43;2.65;;;;;;;;;;5032470;28;20026;-33
2021/08/05 12:07:18;;;;;;;6.07;2.30;;;;;;;;;;5030340;28;20013;-34
2021/08/05 12:09:49;;;;;;;16.83;2.65;;;;;;;;;;5029334;28;20026;-35
2021/08/05 12:12:16;;;;;;;12.30;2.58;;;;;;;;;;5031699;28;20026;-33
2021/08/05 12:14:54;;;;;;;8.00;2.35;;;;;;;;;;5032686;28;20098;-32
2021/08/05 12:17:31;;;;;;;10.50;3.03;;;;;;;;;;5030936;28;20044;-36
2021/08/05 12:19:59;;;;;;;6.05;2.10;;;;;;;;;;5031711;28;20104;-35
2021/08/05 12:22:30;;;;;;;5.95;2.30;;;;;;;;;;5024645;28;20025;-35
2021/08/05 12:25:00;;;;;;;8.05;1.80;;;;;;;;;;5026701;28;20503;-34
2021/08/05 12:27:29;;;;;;;8.02;2.38;;;;;;;;;;5032189;28;20424;-35
2021/08/05 12:29:59;;;;;;;5.68;1.90;;;;;;;;;;5040904;28;20033;-35
2021/08/05 12:32:26;;;;;;;6.57;2.00;;;;;;;;;;5039636;28;20028;-35
2021/08/05 12:34:53;;;;;;;6.93;1.88;;;;;;;;;;5043320;28;20024;-34
2021/08/05 12:37:21;;;;;;;11.27;2.22;;;;;;;;;;5041978;28;20030;-35
2021/08/05 12:39:48;;;;;;;10.32;2.00;;;;;;;;;;5042916;28;20118;-35
2021/08/05 12:42:17;;;;;;;8.15;2.10;;;;;;;;;;5037727;28;20037;-34
2021/08/05 12:44:44;;;;;;;7.25;2.00;;;;;;;;;;5037047;28;20021;-36
2021/08/05 12:47:12;;;;;;;9.88;1.90;;;;;;;;;;5035383;28;20117;-36
2021/08/05 12:49:42;;;;;;;6.07;2.05;;;;;;;;;;5037690;28;20014;-39
2021/08/05 12:52:09;;;;;;;6.93;1.92;;;;;;;;;;5034074;28;20032;-35
2021/08/05 12:54:38;;;;;;;6.90;1.95;;;;;;;;;;5030174;28;20424;-35
2021/08/05 12:57:16;;;;;;;15.70;2.97;;;;;;;;;;5037350;28;20038;-35
2021/08/05 12:59:45;;;;;;;7.63;1.80;;;;;;;;;;5033523;28;20025;-35
2021/08/05 13:02:13;;;;;;;13.05;2.00;;;;;;;;;;5035680;28;20034;-35
2021/08/05 13:04:41;;;;;;;12.88;2.00;;;;;;;;;;5038099;28;20095;-34
2021/08/05 13:07:10;;;;;;;18.40;3.10;;;;;;;;;;5041766;28;20048;-36
2021/08/05 13:09:49;;;;;;;9.43;2.85;;;;;;;;;;5036813;28;20044;-34
2021/08/05 13:12:24;;;;;;;7.88;2.05;;;;;;;;;;5036703;28;20025;-35
2021/08/05 13:14:51;;;;;;;11.60;2.42;;;;;;;;;;5008838;28;20029;-36
2021/08/05 13:17:20;;;;;;;10.73;2.50;;;;;;;;;;5038373;28;20037;-35
2021/08/05 13:19:58;;;;;;;11.60;2.33;;;;;;;;;;5038780;28;20510;-35
2021/08/05 13:22:40;;;;;;;15.75;3.20;;;;;;;;;;5038605;28;20025;-40
2021/08/05 13:25:20;;;;;;;10.70;2.60;;;;;;;;;;5027614;28;20545;-37
2021/08/05 13:28:05;;;;;;;10.15;2.45;;;;;;;;;;5036961;28;20108;-35
2021/08/05 13:30:32;;;;;;;6.32;2.10;;;;;;;;;;5043059;28;20028;-36
2021/08/05 13:32:59;;;;;;;10.30;2.17;;;;;;;;;;5038512;28;20499;-34
2021/08/05 13:35:26;;;;;;;8.95;2.40;;;;;;;;;;5033400;28;20469;-35
2021/08/05 13:38:03;;;;;;;10.55;2.40;;;;;;;;;;5037021;28;20064;-35
2021/08/05 13:40:32;;;;;;;9.82;2.42;;;;;;;;;;5035935;28;20032;-35
2021/08/05 13:43:01;;;;;;;11.05;2.38;;;;;;;;;;5036373;28;20060;-35
2021/08/05 13:45:28;;;;;;;9.18;3.25;;;;;;;;;;5031628;28;20449;-34
2021/08/05 13:47:55;;;;;;;9.10;2.15;;;;;;;;;;5038800;28;20029;-35
2021/08/05 13:50:26;;;;;;;6.07;1.88;;;;;;;;;;5032857;28;20076;-39
2021/08/05 13:52:55;;;;;;;7.18;2.22;;;;;;;;;;5033545;28;20026;-35
2021/08/05 13:55:22;;;;;;;11.40;2.08;;;;;;;;;;5036508;28;20097;-33
2021/08/05 13:57:50;;;;;;;7.97;1.90;;;;;;;;;;5036796;28;20152;-35
2021/08/05 14:00:17;;;;;;;9.32;1.90;;;;;;;;;;5033325;28;20025;-35
2021/08/05 14:02:45;;;;;;;11.52;2.22;;;;;;;;;;5029013;28;20046;-34
2021/08/05 14:05:12;;;;;;;7.25;2.15;;;;;;;;;;5037400;28;20033;-36
2021/08/05 14:07:41;;;;;;;10.48;2.17;;;;;;;;;;5042014;28;20021;-35
2021/08/05 14:10:08;;;;;;;7.35;2.00;;;;;;;;;;5040110;28;20095;-35
2021/08/05 14:12:40;;;;;;;6.15;2.50;;;;;;;;;;5037601;28;20456;-33
2021/08/05 14:15:07;;;;;;;5.68;2.13;;;;;;;;;;5041607;28;20040;-34
2021/08/05 14:17:34;;;;;;;11.90;2.78;;;;;;;;;;5033671;28;20540;-35
2021/08/05 14:20:01;;;;;;;8.85;2.13;;;;;;;;;;5039149;28;20354;-33
2021/08/05 14:22:28;;;;;;;12.73;2.38;;;;;;;;;;5038067;28;20470;-33
2021/08/05 14:24:55;;;;;;;11.07;2.42;;;;;;;;;;5034009;28;20028;-35
2021/08/05 14:27:23;;;;;;;8.70;2.53;;;;;;;;;;5039238;28;20430;-34
2021/08/05 14:29:50;;;;;;;8.88;2.33;;;;;;;;;;5032273;28;20108;-34
2021/08/05 14:32:16;;;;;;;20.60;2.70;;;;;;;;;;5032244;28;20033;-34
2021/08/05 14:34:44;;;;;;;8.40;2.25;;;;;;;;;;5037447;28;20052;-35
2021/08/05 14:37:10;;;;;;;12.77;2.47;;;;;;;;;;5039912;28;20067;-34
2021/08/05 14:39:37;;;;;;;9.45;2.30;;;;;;;;;;5030964;28;20342;-34
2021/08/05 14:42:05;;;;;;;11.88;2.42;;;;;;;;;;5030141;28;20034;-35
2021/08/05 14:44:32;;;;;;;18.25;2.90;;;;;;;;;;5029263;28;20063;-34
2021/08/05 14:46:59;;;;;;;11.93;2.35;;;;;;;;;;5028388;28;20026;-34
2021/08/05 14:49:26;;;;;;;18.33;2.50;;;;;;;;;;5029110;28;20646;-34
2021/08/05 14:51:54;;;;;;;11.73;2.80;;;;;;;;;;5028361;28;20030;-34